Time;durP1;ratioP1;P1;durP2;ratioP2;P2;SDS_P1;SDS_P2;PMS_P1;PMS_P2;Temp;Humidity;BMP_temperature;BMP_pressure;BME280_temperature;BME280_humidity;BME280_pressure;Samples;Min_cycle;Max_cycle;Signal;HPM_P1;HPM_P2
2021/07/06 00:01:05;;;;;;;;;;;;;;;18.01;82.13;100492.44;5077353;28;20453;-40
2021/07/06 00:03:30;;;;;;;1.45;1.20;;;;;;;17.94;82.07;100506.44;5077647;28;19904;-40
2021/07/06 00:05:56;;;;;;;1.73;1.20;;;;;;;17.93;81.79;100509.47;5077129;28;20024;-40
2021/07/06 00:08:21;;;;;;;;;;;;;;;17.99;81.49;100497.38;5077216;28;20449;-40
2021/07/06 00:10:46;;;;;;;3.13;1.03;;;;;;;17.94;81.32;100487.28;5076757;28;20360;-40
2021/07/06 00:13:12;;;;;;;;;;;;;;;17.99;81.00;100487.25;5077649;28;20609;-40
2021/07/06 00:15:37;;;;;;;1.73;0.90;;;;;;;17.93;80.72;100471.19;5076963;28;20350;-40
2021/07/06 00:18:03;;;;;;;;;;;;;;;17.97;81.05;100474.97;5077463;28;20298;-40
2021/07/06 00:20:29;;;;;;;1.73;0.77;;;;;;;17.95;81.10;100468.94;5076522;28;20356;-40
2021/07/06 00:22:55;;;;;;;;;;;;;;;17.97;80.79;100473.03;5077768;28;20364;-40
2021/07/06 00:25:20;;;;;;;1.77;0.70;;;;;;;17.88;81.48;100480.25;5076465;28;19997;-40
2021/07/06 00:27:46;;;;;;;;;;;;;;;17.92;81.39;100480.50;5075201;28;20079;-40
2021/07/06 00:30:12;;;;;;;1.90;1.02;;;;;;;17.89;82.07;100475.59;5076947;28;19947;-40
2021/07/06 00:32:38;;;;;;;1.30;0.98;;;;;;;17.84;82.10;100478.38;5076334;28;20052;-40
2021/07/06 00:35:07;;;;;;;1.60;0.70;;;;;;;17.79;82.27;100473.75;5075883;28;20494;-40
2021/07/06 00:37:33;;;;;;;1.00;0.70;;;;;;;17.79;82.07;100464.75;5076118;28;20025;-40
2021/07/06 00:39:59;;;;;;;1.10;0.70;;;;;;;17.79;82.55;100464.75;5076529;28;20101;-40
2021/07/06 00:42:24;;;;;;;;;;;;;;;17.84;82.10;100467.44;5076591;28;20353;-40
2021/07/06 00:44:50;;;;;;;1.85;0.88;;;;;;;17.75;83.68;100476.25;5075912;28;19905;-40
2021/07/06 00:47:15;;;;;;;;;;;;;;;17.83;82.44;100471.28;5077302;28;20436;-40
2021/07/06 00:49:41;;;;;;;4.63;1.08;;;;;;;17.77;82.98;100461.50;5076061;28;19904;-40
2021/07/06 00:52:06;;;;;;;;;;;;;;;17.80;82.77;100467.19;5076662;28;20025;-40
2021/07/06 00:54:32;;;;;;;1.40;0.80;;;;;;;17.73;83.35;100467.53;5076030;28;19904;-40
2021/07/06 00:56:58;;;;;;;;;;;;;;;17.80;82.71;100460.91;5076175;28;20058;-40
2021/07/06 00:59:24;;;;;;;1.40;0.60;;;;;;;17.66;83.18;100458.81;5076393;28;19916;-40
2021/07/06 01:01:50;;;;;;;2.05;0.70;;;;;;;17.66;83.46;100467.00;5076649;28;20028;-40
2021/07/06 01:04:15;;;;;;;;;;;;;;;17.73;82.78;100464.78;5075888;28;20021;-40
2021/07/06 01:06:40;;;;;;;2.33;0.77;;;;;;;17.63;84.25;100466.78;5076538;28;20245;-40
2021/07/06 01:09:06;;;;;;;;;;;;;;;17.67;83.34;100468.66;5076373;28;20020;-40
2021/07/06 01:11:34;;;;;;;0.93;0.80;;;;;;;17.57;85.09;100462.44;5075892;28;19908;-40
2021/07/06 01:14:00;;;;;;;1.02;0.80;;;;;;;17.57;84.78;100430.47;5075773;28;20031;-40
2021/07/06 01:16:25;;;;;;;1.67;0.88;;;;;;;17.53;84.98;100423.13;5075858;28;20364;-40
2021/07/06 01:18:50;;;;;;;;;;;;;;;17.59;83.93;100431.00;5075561;28;20039;-40
2021/07/06 01:21:16;;;;;;;3.23;0.70;;;;;;;17.50;85.50;100421.78;5075104;28;19916;-40
2021/07/06 01:23:42;;;;;;;1.15;0.82;;;;;;;17.49;85.41;100426.44;5075912;28;20294;-40
2021/07/06 01:26:08;;;;;;;1.52;0.90;;;;;;;17.45;85.99;100428.09;5075365;28;20051;-40
2021/07/06 01:28:34;;;;;;;;;;;;;;;17.54;84.72;100414.63;5075357;28;20023;-39
2021/07/06 01:30:59;;;;;;;1.02;0.70;;;;;;;17.42;86.04;100406.00;5075761;28;20274;-40
2021/07/06 01:33:29;;;;;;;1.00;0.68;;;;;;;17.45;86.26;100384.38;5075162;28;20449;-40
2021/07/06 01:35:57;;;;;;;5.15;1.35;;;;;;;17.36;86.68;100385.28;5075396;28;20024;-40
2021/07/06 01:38:23;;;;;;;2.05;0.88;;;;;;;17.42;86.67;100363.09;5075794;28;20020;-40
2021/07/06 01:40:49;;;;;;;;;;;;;;;17.52;85.08;100381.31;5075768;28;20100;-40
2021/07/06 01:43:14;;;;;;;2.03;1.10;;;;;;;17.44;86.32;100384.66;5107899;28;20372;-40
2021/07/06 01:45:39;;;;;;;;;;;;;;;17.50;85.74;100380.78;5075966;28;20024;-40
2021/07/06 01:48:05;;;;;;;2.25;0.90;;;;;;;17.36;87.19;100382.53;5074846;28;19904;-40
2021/07/06 01:50:39;;;;;;;;;;;;;;;17.47;85.62;100384.06;5075806;28;20024;-40
2021/07/06 01:53:12;;;;;;;1.10;0.80;;;;;;;17.35;87.08;100386.38;5075357;28;20011;-40
2021/07/06 01:55:41;;;;;;;3.00;1.20;;;;;;;17.35;87.44;100367.25;5075340;28;20024;-40
2021/07/06 01:58:08;;;;;;;2.15;1.20;;;;;;;17.25;87.77;100347.13;5074827;28;20032;-40
2021/07/06 02:00:47;;;;;;;2.38;1.05;;;;;;;17.21;88.77;100356.97;5074942;28;20020;-40
2021/07/06 02:03:13;;;;;;;3.13;1.40;;;;;;;17.24;88.81;100355.59;5075427;28;20387;-40
2021/07/06 02:05:44;;;;;;;2.55;1.40;;;;;;;17.24;88.69;100340.03;5074514;28;20074;-40
2021/07/06 02:08:14;;;;;;;3.72;1.30;;;;;;;17.21;88.70;100334.31;5073748;28;20024;-40
2021/07/06 02:10:41;;;;;;;1.52;1.33;;;;;;;17.17;88.80;100334.06;5074123;28;20100;-40
2021/07/06 02:13:20;;;;;;;2.95;1.25;;;;;;;17.12;89.66;100305.97;5074637;28;20055;-40
2021/07/06 02:15:47;;;;;;;1.60;1.20;;;;;;;17.12;89.31;100309.53;5074342;28;20483;-40
2021/07/06 02:18:20;;;;;;;3.05;1.20;;;;;;;17.11;89.04;100313.38;5074352;28;20025;-40
2021/07/06 02:20:53;;;;;;;7.75;1.50;;;;;;;17.13;88.66;100304.88;5074589;28;20048;-40
2021/07/06 02:23:19;;;;;;;1.52;1.33;;;;;;;17.11;88.73;100304.34;5074786;28;20043;-40
2021/07/06 02:25:47;;;;;;;2.08;1.30;;;;;;;17.11;88.92;100307.09;5074707;28;20024;-40
2021/07/06 02:28:13;;;;;;;1.63;1.10;;;;;;;17.11;88.90;100312.56;5074915;28;20075;-40
2021/07/06 02:30:38;;;;;;;4.18;1.15;;;;;;;17.07;88.39;100290.44;5074699;28;20052;-40
2021/07/06 02:33:04;;;;;;;;;;;;;;;17.14;87.64;100293.69;5074466;28;20024;-40
2021/07/06 02:35:29;;;;;;;3.47;1.35;;;;;;;17.05;88.65;100281.75;5074071;28;20382;-40
2021/07/06 02:37:55;;;;;;;;;;;;;;;17.16;87.44;100282.47;5074328;28;20020;-40
2021/07/06 02:40:21;;;;;;;2.42;1.33;;;;;;;17.07;88.25;100265.88;5074025;28;19908;-40
2021/07/06 02:42:46;;;;;;;2.55;1.52;;;;;;;17.05;88.63;100259.09;5074691;28;20131;-40
2021/07/06 02:45:13;;;;;;;;;;;;;;;17.11;87.34;100258.72;5074305;28;20024;-40
2021/07/06 02:47:39;;;;;;;1.98;1.65;;;;;;;16.97;88.83;100235.94;5073806;28;19912;-40
2021/07/06 02:50:06;;;;;;;1.98;1.30;;;;;;;17.00;88.83;100227.16;5074662;28;20093;-40
2021/07/06 02:52:31;;;;;;;2.17;1.27;;;;;;;16.95;88.91;100216.28;5072539;28;20027;-40
2021/07/06 02:54:57;;;;;;;2.77;1.53;;;;;;;16.94;89.26;100217.41;5073855;28;20024;-40
2021/07/06 02:57:35;;;;;;;3.80;1.83;;;;;;;16.97;89.20;100211.34;5073694;28;20290;-40
2021/07/06 03:00:10;;;;;;;2.35;1.55;;;;;;;16.97;88.51;100193.03;5074155;28;20093;-40
2021/07/06 03:02:40;;;;;;;3.10;1.70;;;;;;;16.92;88.88;100197.75;5074185;28;20032;-40
2021/07/06 03:05:07;;;;;;;3.88;1.50;;;;;;;16.97;88.61;100227.72;5073677;28;20028;-40
2021/07/06 03:07:32;;;;;;;2.63;1.50;;;;;;;16.96;88.38;100226.91;5073652;28;20032;-40
2021/07/06 03:10:01;;;;;;;1.83;1.08;;;;;;;16.96;88.18;100205.06;5072664;28;20032;-40
2021/07/06 03:12:26;;;;;;;3.17;1.33;;;;;;;16.95;88.07;100197.19;5074341;28;20446;-40
2021/07/06 03:14:51;;;;;;;2.63;1.30;;;;;;;16.98;88.03;100193.84;5073651;28;20020;-40
2021/07/06 03:17:16;;;;;;;2.63;1.30;;;;;;;17.01;87.48;100209.66;5073478;28;20282;-40
2021/07/06 03:19:42;;;;;;;3.17;1.20;;;;;;;16.98;87.37;100222.00;5077650;28;20346;-40
2021/07/06 03:22:07;;;;;;;2.40;1.10;;;;;;;16.97;87.34;100230.47;5080038;28;20040;-40
2021/07/06 03:24:32;;;;;;;;;;;;;;;17.06;86.80;100222.47;5081203;28;20082;-40
2021/07/06 03:26:58;;;;;;;3.97;1.30;;;;;;;17.00;87.79;100208.06;5079861;28;19908;-40
2021/07/06 03:29:23;;;;;;;;;;;;;;;17.06;86.88;100209.63;5081363;28;20066;-40
2021/07/06 03:31:48;;;;;;;2.77;1.30;;;;;;;16.98;87.20;100204.78;5080064;28;20340;-40
2021/07/06 03:34:13;;;;;;;;;;;;;;;17.06;87.15;100219.72;5080221;28;20017;-40
2021/07/06 03:36:39;;;;;;;2.37;1.20;;;;;;;16.99;87.24;100200.97;5080008;28;19908;-40
2021/07/06 03:39:04;;;;;;;3.47;1.13;;;;;;;17.01;87.40;100209.66;5080032;28;20267;-40
2021/07/06 03:41:29;;;;;;;3.47;1.03;;;;;;;17.03;87.45;100199.28;5080053;28;20020;-40
2021/07/06 03:43:55;;;;;;;3.60;1.10;;;;;;;17.05;86.97;100199.81;5080200;28;20266;-40
2021/07/06 03:46:20;;;;;;;2.28;1.52;;;;;;;17.11;86.70;100197.81;5080216;28;20722;-40
2021/07/06 03:48:45;;;;;;;;;;;;;;;17.17;86.41;100191.19;5081119;28;20024;-40
2021/07/06 03:51:11;;;;;;;3.25;1.25;;;;;;;17.15;86.71;100177.84;5079911;28;19904;-40
2021/07/06 03:53:36;;;;;;;3.05;1.08;;;;;;;17.16;86.72;100175.91;5080346;28;20028;-40
2021/07/06 03:56:01;;;;;;;;;;;;;;;17.20;86.29;100172.31;5080582;28;20044;-40
2021/07/06 03:58:27;;;;;;;1.50;1.15;;;;;;;17.16;86.43;100165.78;5079728;28;19961;-40
2021/07/06 04:00:52;;;;;;;;;;;;;;;17.22;86.07;100163.81;5080849;28;20103;-40
2021/07/06 04:03:17;;;;;;;4.80;0.90;;;;;;;17.21;87.21;100162.19;5079772;28;19947;-40
2021/07/06 04:05:42;;;;;;;3.17;0.98;;;;;;;17.23;86.03;100151.81;5080052;28;20259;-40
2021/07/06 04:08:08;;;;;;;5.23;1.10;;;;;;;17.25;86.01;100152.31;5078080;28;20451;-40
2021/07/06 04:10:33;;;;;;;5.60;0.90;;;;;;;17.29;86.06;100158.81;5079462;28;20302;-40
2021/07/06 04:12:58;;;;;;;2.30;1.00;;;;;;;17.33;86.19;100162.59;5079596;28;20276;-40
2021/07/06 04:15:25;;;;;;;;;;;;;;;17.39;85.37;100191.47;5080725;28;20028;-40
2021/07/06 04:17:50;;;;;;;3.65;1.20;;;;;;;17.39;86.21;100152.41;5079531;28;20301;-40
2021/07/06 04:20:16;;;;;;;1.83;1.20;;;;;;;17.38;85.44;100146.13;5079391;28;20024;-40
2021/07/06 04:22:43;;;;;;;3.20;1.00;;;;;;;17.49;84.28;100185.06;5080175;28;20036;-40
2021/07/06 04:25:09;;;;;;;2.60;0.95;;;;;;;17.55;84.41;100172.97;5080156;28;20083;-40
2021/07/06 04:27:34;;;;;;;2.80;0.90;;;;;;;17.67;82.74;100188.97;5079788;28;20541;-40
2021/07/06 04:29:59;;;;;;;;;;;;;;;17.72;83.37;100194.34;5080578;28;20020;-40
2021/07/06 04:32:25;;;;;;;2.23;0.90;;;;;;;17.81;81.79;100205.47;5075519;28;19955;-40
2021/07/06 04:34:50;;;;;;;5.20;1.35;;;;;;;17.88;81.86;100194.97;5076928;28;20275;-40
2021/07/06 04:37:16;;;;;;;;;;;;;;;17.93;81.73;100214.06;5076301;28;20028;-40
2021/07/06 04:39:41;;;;;;;4.90;0.90;;;;;;;17.94;81.41;100223.88;5076191;28;19915;-40
2021/07/06 04:42:07;;;;;;;4.15;1.00;;;;;;;18.00;80.81;100225.44;5076152;28;20028;-40
2021/07/06 04:44:33;;;;;;;3.13;0.85;;;;;;;18.07;80.47;100245.03;5076397;28;20020;-40
2021/07/06 04:46:58;;;;;;;2.85;0.85;;;;;;;18.11;80.52;100239.81;5074508;28;20490;-40
2021/07/06 04:49:23;;;;;;;;;;;;;;;18.14;80.89;100225.50;5076743;28;20020;-40
2021/07/06 04:51:49;;;;;;;1.70;0.90;;;;;;;18.14;80.41;100218.09;5075745;28;19934;-40
2021/07/06 04:54:14;;;;;;;;;;;;;;;18.20;80.40;100229.78;5076431;28;20024;-41
2021/07/06 04:56:39;;;;;;;4.03;0.90;;;;;;;18.25;79.09;100227.81;5076358;28;19908;-40
2021/07/06 04:59:05;;;;;;;;;;;;;;;18.28;80.09;100207.22;5076312;28;20024;-40
2021/07/06 05:01:30;;;;;;;1.93;0.90;;;;;;;18.25;79.54;100218.75;5076464;28;19908;-40
2021/07/06 05:03:57;;;;;;;1.33;1.13;;;;;;;18.27;79.81;100230.25;5076375;28;20262;-41
2021/07/06 05:06:22;;;;;;;4.22;1.35;;;;;;;18.30;79.74;100223.34;5076343;28;20020;-40
2021/07/06 05:08:48;;;;;;;;;;;;;;;18.33;79.45;100233.72;5076138;28;20375;-40
2021/07/06 05:11:14;;;;;;;4.47;1.20;;;;;;;18.33;79.38;100244.66;5075758;28;20344;-40
2021/07/06 05:13:40;;;;;;;3.78;0.95;;;;;;;18.35;78.72;100242.44;5075551;28;20075;-40
2021/07/06 05:16:05;;;;;;;;;;;;;;;18.36;79.28;100244.88;5076279;28;20193;-40
2021/07/06 05:18:30;;;;;;;2.65;0.90;;;;;;;18.35;79.24;100239.69;5075161;28;20265;-40
2021/07/06 05:20:56;;;;;;;;;;;;;;;18.36;79.95;100241.34;5076007;28;20048;-40
2021/07/06 05:23:21;;;;;;;2.13;1.00;;;;;;;18.31;80.25;100246.88;5075195;28;19923;-40
2021/07/06 05:25:46;;;;;;;2.55;1.02;;;;;;;18.30;80.02;100243.34;5075670;28;20278;-40
2021/07/06 05:28:11;;;;;;;;;;;;;;;18.32;80.11;100227.44;5075421;28;20107;-40
2021/07/06 05:30:37;;;;;;;3.07;0.93;;;;;;;18.28;80.24;100227.19;5075351;28;19943;-40
2021/07/06 05:33:02;;;;;;;;;;;;;;;18.31;80.23;100238.69;5075389;28;20263;-40
2021/07/06 05:35:28;;;;;;;6.60;1.27;;;;;;;18.28;80.33;100232.69;5075753;28;19909;-40
2021/07/06 05:37:53;;;;;;;;;;;;;;;18.31;80.20;100211.31;5075522;28;20471;-40
2021/07/06 05:40:18;;;;;;;3.72;0.88;;;;;;;18.25;81.19;100211.41;5075093;28;19912;-40
2021/07/06 05:42:44;;;;;;;;;;;;;;;18.30;80.59;100215.13;5074308;28;20024;-40
2021/07/06 05:45:10;;;;;;;3.55;1.05;;;;;;;18.27;80.87;100184.53;5075589;28;19954;-40
2021/07/06 05:47:38;;;;;;;3.83;1.35;;;;;;;18.28;80.89;100213.53;5074849;28;20520;-40
2021/07/06 05:50:06;;;;;;;3.28;1.30;;;;;;;18.30;80.90;100202.28;5075219;28;20017;-40
2021/07/06 05:52:32;;;;;;;3.42;1.17;;;;;;;18.32;81.05;100210.19;5074783;28;20031;-39
2021/07/06 05:54:57;;;;;;;;;;;;;;;18.37;80.76;100215.59;5075206;28;20029;-40
2021/07/06 05:57:29;;;;;;;4.35;0.90;;;;;;;18.36;81.06;100201.09;5074949;28;19954;-40
2021/07/06 05:59:56;;;;;;;2.10;1.27;;;;;;;18.37;81.21;100196.44;5075272;28;20021;-40
2021/07/06 06:02:22;;;;;;;5.22;1.10;;;;;;;18.40;81.20;100201.31;5074882;28;20024;-40
2021/07/06 06:04:47;;;;;;;;;;;;;;;18.44;80.94;100196.84;5075326;28;20512;-40
2021/07/06 06:07:12;;;;;;;3.47;1.30;;;;;;;18.44;81.29;100194.09;5074275;28;20371;-40
2021/07/06 06:09:37;;;;;;;;;;;;;;;18.48;80.84;100198.69;5074982;28;20727;-40
2021/07/06 06:12:03;;;;;;;4.30;1.10;;;;;;;18.50;81.27;100184.72;5074702;28;20249;-40
2021/07/06 06:14:28;;;;;;;;;;;;;;;18.56;81.01;100194.47;5074815;28;20157;-40
2021/07/06 06:16:54;;;;;;;2.20;1.00;;;;;;;18.57;80.79;100207.03;5074366;28;19934;-40
2021/07/06 06:19:19;;;;;;;;;;;;;;;18.61;80.62;100191.63;5074383;28;20275;-40
2021/07/06 06:21:44;;;;;;;3.53;1.30;;;;;;;18.62;80.84;100181.50;5074269;28;19919;-40
2021/07/06 06:24:09;;;;;;;;;;;;;;;18.66;80.71;100175.13;5074367;28;20818;-40
2021/07/06 06:26:35;;;;;;;1.60;0.95;;;;;;;18.66;80.94;100177.06;5074458;28;20332;-40
2021/07/06 06:29:00;;;;;;;;;;;;;;;18.73;80.93;100174.75;5074866;28;20028;-40
2021/07/06 06:31:25;;;;;;;3.45;1.00;;;;;;;18.73;81.35;100169.28;5074450;28;20255;-40
2021/07/06 06:33:50;;;;;;;;;;;;;;;18.80;80.91;100182.59;5074129;28;20048;-40
2021/07/06 06:36:16;;;;;;;2.07;0.90;;;;;;;18.77;81.06;100182.06;5073805;28;19908;-40
2021/07/06 06:38:41;;;;;;;;;;;;;;;18.84;80.93;100172.63;5074342;28;20024;-40
2021/07/06 06:41:06;;;;;;;2.00;0.88;;;;;;;18.87;80.54;100180.25;5074796;28;19991;-40
2021/07/06 06:43:32;;;;;;;;;;;;;;;18.91;80.70;100184.03;5074338;28;20051;-40
2021/07/06 06:45:57;;;;;;;2.90;0.93;;;;;;;18.94;80.52;100183.44;5073678;28;19913;-40
2021/07/06 06:48:22;;;;;;;;;;;;;;;18.98;79.92;100189.91;5074320;28;20267;-40
2021/07/06 06:50:47;;;;;;;3.60;1.00;;;;;;;19.00;79.46;100198.66;5073770;28;19947;-40
2021/07/06 06:53:13;;;;;;;;;;;;;;;19.07;79.78;100196.31;5073995;28;20029;-40
2021/07/06 06:55:38;;;;;;;4.40;1.07;;;;;;;19.08;79.48;100202.59;5073183;28;19908;-40
2021/07/06 06:58:03;;;;;;;;;;;;;;;19.13;79.58;100197.00;5074103;28;20438;-40
2021/07/06 07:00:30;;;;;;;1.75;0.93;;;;;;;19.10;79.33;100201.19;5073658;28;19908;-40
2021/07/06 07:02:56;;;;;;;2.53;1.10;;;;;;;19.11;79.55;100207.47;5073655;28;20036;-40
2021/07/06 07:05:21;;;;;;;;;;;;;;;19.14;78.67;100209.63;5074150;28;20021;-40
2021/07/06 07:07:46;;;;;;;1.70;0.80;;;;;;;19.07;79.05;100199.03;5073629;28;19912;-40
2021/07/06 07:10:12;;;;;;;;;;;;;;;19.14;78.99;100188.50;5074400;28;20024;-40
2021/07/06 07:12:39;;;;;;;3.15;0.90;;;;;;;19.12;78.32;100201.69;5073879;28;20345;-40
2021/07/06 07:15:06;;;;;;;1.80;0.95;;;;;;;19.15;78.31;100201.09;5074152;28;20047;-40
2021/07/06 07:17:32;;;;;;;1.20;0.70;;;;;;;19.17;77.98;100206.25;5073437;28;20082;-40
2021/07/06 07:19:57;;;;;;;;;;;;;;;19.24;77.75;100202.00;5074872;28;20016;-40
2021/07/06 07:22:22;;;;;;;1.50;0.90;;;;;;;19.21;77.01;100196.31;5073757;28;19976;-41
2021/07/06 07:24:47;;;;;;;;;;;;;;;19.31;77.57;100201.59;5074004;28;20100;-40
2021/07/06 07:27:13;;;;;;;1.20;0.68;;;;;;;19.34;76.09;100205.66;5073444;28;20001;-40
2021/07/06 07:29:38;;;;;;;;;;;;;;;19.40;76.43;100210.72;5074229;28;20040;-40
2021/07/06 07:32:05;;;;;;;4.90;0.80;;;;;;;19.37;75.05;100207.78;5073361;28;19904;-40
2021/07/06 07:34:32;;;;;;;2.70;0.90;;;;;;;19.37;74.80;100218.75;5073287;28;20027;-40
2021/07/06 07:36:57;;;;;;;3.60;0.80;;;;;;;19.36;74.45;100226.16;5073043;28;20062;-40
2021/07/06 07:39:22;;;;;;;;;;;;;;;19.42;74.48;100229.63;5073691;28;20063;-40
2021/07/06 07:41:48;;;;;;;1.58;0.68;;;;;;;19.36;74.23;100228.91;5073601;28;20355;-40
2021/07/06 07:44:13;;;;;;;;;;;;;;;19.41;74.55;100228.00;5073687;28;20017;-40
2021/07/06 07:46:39;;;;;;;1.00;0.50;;;;;;;19.38;73.84;100242.31;5073016;28;19904;-40
2021/07/06 07:49:04;;;;;;;;;;;;;;;19.37;73.21;100244.22;5073649;28;20028;-40
2021/07/06 07:51:30;;;;;;;1.17;0.82;;;;;;;19.25;72.67;100235.72;5073404;28;19904;-40
2021/07/06 07:53:55;;;;;;;;;;;;;;;19.26;72.32;100240.06;5073843;28;20029;-40
2021/07/06 07:56:20;;;;;;;5.17;0.60;;;;;;;19.16;71.73;100245.75;5073160;28;20352;-40
2021/07/06 07:58:45;;;;;;;;;;;;;;;19.17;72.03;100247.38;5073483;28;20283;-40
2021/07/06 08:01:11;;;;;;;3.83;1.10;;;;;;;19.03;71.53;100250.91;5072906;28;20367;-40
2021/07/06 08:03:36;;;;;;;;;;;;;;;19.06;71.44;100260.44;5073479;28;20734;-40
2021/07/06 08:06:02;;;;;;;2.47;0.75;;;;;;;19.02;71.71;100259.41;5073834;28;20349;-40
2021/07/06 08:08:27;;;;;;;;;;;;;;;19.11;72.77;100263.09;5076974;28;20105;-40
2021/07/06 08:10:53;;;;;;;1.17;0.57;;;;;;;19.07;71.78;100273.03;5077113;28;19922;-40
2021/07/06 08:13:23;;;;;;;1.23;0.60;;;;;;;19.20;71.43;100271.44;5076651;28;20024;-40
2021/07/06 08:15:50;;;;;;;2.55;0.80;;;;;;;19.29;70.68;100281.41;5077022;28;20070;-39
2021/07/06 08:18:15;;;;;;;1.52;0.52;;;;;;;19.54;69.72;100280.09;5076643;28;20024;-40
2021/07/06 08:20:41;;;;;;;;;;;;;;;19.74;69.38;100273.41;5077116;28;20055;-40
2021/07/06 08:23:07;;;;;;;4.40;0.70;;;;;;;19.93;67.87;100270.56;5076856;28;20306;-40
2021/07/06 08:25:32;;;;;;;;;;;;;;;20.05;67.74;100283.72;5077284;28;20028;-40
2021/07/06 08:27:57;;;;;;;3.17;0.98;;;;;;;20.03;67.67;100280.50;5076782;28;19961;-40
2021/07/06 08:30:23;;;;;;;;;;;;;;;20.24;67.35;100300.06;5076973;28;20025;-40
2021/07/06 08:32:48;;;;;;;4.40;0.80;;;;;;;20.26;67.15;100282.19;5076405;28;20355;-40
2021/07/06 08:35:13;;;;;;;2.40;0.50;;;;;;;20.45;67.05;100294.94;5076658;28;20052;-40
2021/07/06 08:37:39;;;;;;;;;;;;;;;20.63;66.94;100304.16;5076560;28;20023;-40
2021/07/06 08:40:06;;;;;;;1.70;0.52;;;;;;;20.75;65.66;100296.19;5077078;28;19908;-40
2021/07/06 08:42:32;;;;;;;2.75;0.68;;;;;;;20.68;64.92;100304.03;5076373;28;20028;-40
2021/07/06 08:44:57;;;;;;;;;;;;;;;20.76;65.99;100298.59;5076910;28;20390;-40
2021/07/06 08:47:23;;;;;;;3.07;0.83;;;;;;;20.62;64.45;100297.84;5076381;28;20013;-40
2021/07/06 08:49:51;;;;;;;2.38;1.10;;;;;;;20.54;63.45;100309.56;5076367;28;20270;-40
2021/07/06 08:52:18;;;;;;;4.03;0.90;;;;;;;20.46;63.06;100316.59;5076309;28;20035;-40
2021/07/06 08:54:44;;;;;;;2.47;0.70;;;;;;;20.44;62.99;100318.81;5075997;28;20103;-40
2021/07/06 08:57:10;;;;;;;3.03;0.80;;;;;;;20.24;60.79;100319.28;5076529;28;20027;-40
2021/07/06 08:59:38;;;;;;;;;;;;;;;20.33;62.22;100333.91;5075972;28;20024;-40
2021/07/06 09:02:05;;;;;;;3.22;0.90;;;;;;;20.02;59.57;100336.50;5076699;28;19908;-40
2021/07/06 09:04:53;;;;;;;2.80;0.80;;;;;;;19.87;60.08;100334.91;5075829;28;20020;-40
2021/07/06 09:07:19;;;;;;;2.92;0.90;;;;;;;19.72;60.28;100335.19;5075984;28;20028;-40
2021/07/06 09:09:45;;;;;;;3.45;0.88;;;;;;;19.73;59.78;100336.81;5075724;28;20024;-40
2021/07/06 09:12:12;;;;;;;;;;;;;;;19.90;61.70;100341.69;5075801;28;20020;-40
2021/07/06 09:14:46;;;;;;;3.33;1.10;;;;;;;19.76;60.69;100336.19;5075570;28;19904;-40
2021/07/06 09:17:15;;;;;;;3.53;1.33;;;;;;;19.72;61.67;100347.00;5076037;28;20107;-40
2021/07/06 09:19:46;;;;;;;5.85;0.85;;;;;;;19.80;61.26;100342.69;5075722;28;20416;-40
2021/07/06 09:22:11;;;;;;;2.90;0.90;;;;;;;19.84;61.37;100342.91;5075412;28;20044;-40
2021/07/06 09:24:37;;;;;;;;;;;;;;;20.01;62.29;100335.69;5075627;28;20040;-40
2021/07/06 09:27:39;;;;;;;3.63;0.88;;;;;;;20.39;60.76;100331.84;5075664;28;19912;-40
2021/07/06 09:30:16;;;;;;;4.30;1.13;;;;;;;20.73;59.11;100336.88;5052968;28;20111;-40
2021/07/06 09:32:55;;;;;;;4.53;1.00;;;;;;;20.75;59.11;100329.16;5053120;28;20048;-40
2021/07/06 09:35:26;;;;;;;4.65;0.98;;;;;;;20.77;59.96;100338.69;5053411;28;20035;-40
2021/07/06 09:37:53;;;;;;;5.93;1.23;;;;;;;20.62;59.47;100335.50;5052912;28;20108;-40
2021/07/06 09:40:39;;;;;;;3.72;0.98;;;;;;;20.46;59.28;100337.75;5053091;28;20047;-40
2021/07/06 09:43:16;;;;;;;1.98;0.75;;;;;;;20.67;59.37;100335.38;5053051;28;20465;-40
2021/07/06 09:45:56;;;;;;;4.13;1.00;;;;;;;20.84;58.64;100338.28;5053472;28;20562;-40
2021/07/06 09:48:22;;;;;;;3.95;0.95;;;;;;;20.92;57.37;100333.94;5052646;28;20523;-40
2021/07/06 09:50:48;;;;;;;3.28;0.90;;;;;;;21.16;57.42;100345.44;5052648;28;20037;-40
2021/07/06 09:53:23;;;;;;;;;;;;;;;21.32;58.16;100349.44;5052849;28;20029;-40
2021/07/06 09:55:48;;;;;;;3.80;0.68;;;;;;;21.17;56.83;100343.50;5052564;28;19995;-40
2021/07/06 09:58:14;;;;;;;;;;;;;;;21.30;58.77;100348.09;5053277;28;20112;-40
2021/07/06 10:00:39;;;;;;;3.50;0.90;;;;;;;20.99;58.65;100361.81;5052916;28;19970;-40
2021/07/06 10:03:05;;;;;;;3.05;0.80;;;;;;;21.10;59.49;100368.69;5054664;28;20419;-40
2021/07/06 10:05:31;;;;;;;2.08;0.70;;;;;;;21.21;57.75;100377.47;5075140;28;20032;-40
2021/07/06 10:07:57;;;;;;;3.53;1.10;;;;;;;21.05;57.11;100379.81;5074575;28;20043;-40
2021/07/06 10:10:22;;;;;;;;;;;;;;;21.14;55.92;100386.19;5075584;28;20068;-40
2021/07/06 10:12:49;;;;;;;4.53;1.07;;;;;;;21.10;55.93;100371.44;5074922;28;19944;-40
2021/07/06 10:15:21;;;;;;;2.20;0.80;;;;;;;21.07;53.97;100375.59;5074452;28;20416;-40
2021/07/06 10:17:49;;;;;;;8.05;1.05;;;;;;;21.19;51.41;100383.31;5074829;28;20020;-40
2021/07/06 10:20:21;;;;;;;6.25;1.08;;;;;;;21.39;53.96;100408.69;5074631;28;20074;-40
2021/07/06 10:22:47;;;;;;;6.50;1.02;;;;;;;21.46;50.90;100396.09;5074918;28;20052;-40
2021/07/06 10:25:13;;;;;;;5.60;0.95;;;;;;;21.48;52.53;100396.63;5074565;28;20054;-40
2021/07/06 10:27:42;;;;;;;;;;;;;;;21.52;51.45;100402.28;5074591;28;20086;-40
2021/07/06 10:30:15;;;;;;;4.40;1.00;;;;;;;21.16;52.91;100418.84;5074391;28;20319;-40
2021/07/06 10:32:49;;;;;;;6.15;0.90;;;;;;;21.05;51.89;100419.09;5074134;28;20040;-40
2021/07/06 10:35:15;;;;;;;6.30;1.20;;;;;;;20.97;52.74;100419.84;5074336;28;20113;-40
2021/07/06 10:37:42;;;;;;;6.25;1.20;;;;;;;20.75;52.16;100439.84;5073913;28;20471;-40
2021/07/06 10:40:22;;;;;;;5.72;1.20;;;;;;;20.59;53.22;100441.28;5074295;28;20020;-40
2021/07/06 10:42:50;;;;;;;7.43;1.40;;;;;;;20.36;52.70;100456.06;5074544;28;20016;-40
2021/07/06 10:45:25;;;;;;;8.80;1.40;;;;;;;20.30;54.17;100456.16;5073977;28;20038;-40
2021/07/06 10:47:54;;;;;;;7.57;1.23;;;;;;;20.29;53.85;100453.69;5073587;28;20052;-40
2021/07/06 10:50:31;;;;;;;4.93;1.25;;;;;;;20.33;53.84;100460.22;5074690;28;20029;-40
2021/07/06 10:53:18;;;;;;;8.07;1.58;;;;;;;20.43;52.42;100453.69;5073603;28;20457;-40
2021/07/06 10:55:56;;;;;;;4.53;1.60;;;;;;;20.76;52.42;100446.97;5074110;28;20031;-40
2021/07/06 10:58:47;;;;;;;5.00;1.02;;;;;;;21.06;51.80;100450.16;5074271;28;20039;-40
2021/07/06 11:01:37;;;;;;;6.75;1.35;;;;;;;21.49;52.34;100444.19;5073985;28;20024;-40
2021/07/06 11:04:07;;;;;;;5.38;1.35;;;;;;;21.63;51.15;100449.63;5073927;28;20052;-40
2021/07/06 11:06:50;;;;;;;7.88;1.42;;;;;;;21.77;49.07;100448.41;5074489;28;20024;-40
2021/07/06 11:09:19;;;;;;;4.72;1.08;;;;;;;21.92;50.30;100460.97;5073399;28;20029;-40
2021/07/06 11:11:45;;;;;;;7.40;1.10;;;;;;;21.70;48.51;100452.72;5073914;28;20334;-40
2021/07/06 11:14:26;;;;;;;4.32;1.17;;;;;;;21.40;49.49;100468.06;5074138;28;20108;-40
2021/07/06 11:17:01;;;;;;;4.85;1.00;;;;;;;21.23;50.09;100466.81;5073345;28;20042;-40
2021/07/06 11:19:37;;;;;;;7.30;1.33;;;;;;;21.17;49.56;100473.53;5073697;28;20052;-40
2021/07/06 11:22:17;;;;;;;5.35;1.20;;;;;;;21.17;51.66;100472.72;5073209;28;20524;-40
2021/07/06 11:24:47;;;;;;;5.75;1.02;;;;;;;21.05;50.96;100474.09;5073514;28;20054;-40
2021/07/06 11:27:15;;;;;;;6.85;1.67;;;;;;;20.95;49.85;100477.06;5073787;28;20029;-40
2021/07/06 11:29:42;;;;;;;5.30;1.30;;;;;;;21.00;49.92;100485.19;5073971;28;20099;-40
2021/07/06 11:32:10;;;;;;;5.10;0.90;;;;;;;20.95;49.00;100487.25;5074277;28;20021;-40
2021/07/06 11:34:36;;;;;;;6.07;1.20;;;;;;;20.76;49.11;100487.38;5072394;28;20040;-40
2021/07/06 11:37:08;;;;;;;5.43;1.10;;;;;;;20.74;49.98;100492.34;5073011;28;20395;-40
2021/07/06 11:39:34;;;;;;;3.67;0.85;;;;;;;20.86;50.06;100491.84;5073371;28;20020;-40
2021/07/06 11:42:00;;;;;;;4.70;0.95;;;;;;;21.09;49.58;100504.53;5077273;28;20423;-40
2021/07/06 11:44:26;;;;;;;4.20;1.00;;;;;;;21.15;49.46;100486.78;5077178;28;20028;-40